Главная страница
METAR-TAF:

METAR-TAF

Аэропорты :

Люксембург-Финдел

Люксембург, Люксембург

широта: 49-37N, долгота: 006-13E, высота над уровнем моря: 376 м

Текущие метеонаблюдения

Эта сводка был подготовлена 21 минут назад, в 06:20 UTC
Ветер 6 Узел от восточно-северо-восточный
Температура 17°C
Влажность 68%
Давление 1022 hPa
Видимость 10 км и более
Нет облачности ниже 1500 м, и нет кучево-дождевой облачности

METAR: ELLX 170620Z 06006KT CAVOK 17/11 Q1022 NOSIG

Время: 08:41 (06:41 UTC)

Прогноз

Эта сводка был подготовлена 1 час и 41 минут назад, в 05:00 UTC
Прогноз действительный с 17-го 06 UTC до 18-го 12 UTC
Ветер 6 Узел от северо-восточный
Видимость 10 км и более
Нет облачности ниже 1500 м, и нет кучево-дождевой облачности

TAF: ELLX 170500Z 1706/1812 05006KT CAVOK

Метеонаблюдения и прогнозы для более 4000 аэропортов (сводки METAR и TAF).

Имеющиеся станции представлены на карте желтыми и красными точками.

Чтобы увидеть название станции, наведите на нее мышь.

Затем щелкните, чтобы увидеть метеонаблюдения и метеопрогнозы.

Управление картой: чтобы увеличить масштаб, щелкните зеленые кнопки с черным крестиком; чтобы уменьшить масштаб, щелкните зеленую кнопку с тире; для просмотра соседних карт щелкайте зеленые стрелки.


METAR-TAF: